Time;durP1;ratioP1;P1;durP2;ratioP2;P2;SDS_P1;SDS_P2;PMS_P1;PMS_P2;Temp;Humidity;BMP_temperature;BMP_pressure;BME280_temperature;BME280_humidity;BME280_pressure;Samples;Min_cycle;Max_cycle;Signal;HPM_P1;HPM_P2
2021/11/05 00:01:36;;;;;;;3.80;2.57;;;9.70;99.90;;;;;;5070814;28;20209;-59
2021/11/05 00:04:03;;;;;;;2.83;2.30;;;9.70;99.90;;;;;;5071128;28;20692;-60
2021/11/05 00:06:30;;;;;;;3.13;2.60;;;9.80;99.90;;;;;;5070784;28;20217;-59
2021/11/05 00:08:56;;;;;;;4.03;2.50;;;9.90;99.90;;;;;;5070899;28;20255;-58
2021/11/05 00:11:25;;;;;;;3.00;2.40;;;9.90;99.90;;;;;;5070706;28;20258;-59
2021/11/05 00:13:52;;;;;;;3.73;2.20;;;9.90;99.90;;;;;;5070920;28;20229;-58
2021/11/05 00:16:19;;;;;;;3.03;2.23;;;9.90;99.90;;;;;;5070763;28;20208;-59
2021/11/05 00:18:46;;;;;;;2.40;2.13;;;9.90;99.90;;;;;;5070406;28;20227;-58
2021/11/05 00:21:12;;;;;;;2.17;1.90;;;9.90;99.90;;;;;;5071327;28;20205;-60
2021/11/05 00:23:39;;;;;;;3.47;2.10;;;9.90;99.90;;;;;;5070750;28;20225;-59
2021/11/05 00:26:06;;;;;;;2.77;2.10;;;9.90;99.90;;;;;;5070982;28;20691;-58
2021/11/05 00:28:34;;;;;;;4.90;2.40;;;10.00;99.90;;;;;;5070914;28;20201;-58
2021/11/05 00:31:00;;;;;;;5.27;2.47;;;10.00;99.90;;;;;;5070710;28;20216;-59
2021/11/05 00:33:27;;;;;;;3.30;2.13;;;10.00;99.90;;;;;;5070257;28;20735;-59
2021/11/05 00:35:54;;;;;;;3.93;2.40;;;9.90;99.90;;;;;;5070680;28;20209;-59
2021/11/05 00:38:21;;;;;;;3.33;2.47;;;9.90;99.90;;;;;;5070381;28;20307;-60
2021/11/05 00:40:47;;;;;;;3.47;2.47;;;9.90;99.90;;;;;;5070609;28;20692;-59
2021/11/05 00:43:14;;;;;;;2.50;2.30;;;9.90;99.90;;;;;;5070375;28;20236;-59
2021/11/05 00:45:42;;;;;;;3.07;2.30;;;9.90;99.90;;;;;;5070250;28;20270;-58
2021/11/05 00:48:09;;;;;;;2.70;2.37;;;9.90;99.90;;;;;;5070180;28;20254;-58
2021/11/05 00:50:36;;;;;;;4.37;2.40;;;10.00;99.90;;;;;;5070540;28;20209;-59
2021/11/05 00:53:03;;;;;;;2.50;2.30;;;9.90;99.90;;;;;;5070411;28;20228;-59
2021/11/05 00:55:29;;;;;;;3.87;2.50;;;9.90;99.90;;;;;;5072011;28;20652;-59
2021/11/05 00:57:56;;;;;;;2.57;2.37;;;9.80;99.90;;;;;;5073739;28;20627;-59
2021/11/05 01:00:23;;;;;;;3.30;2.30;;;9.80;99.90;;;;;;5073668;28;20212;-58
2021/11/05 01:02:51;;;;;;;2.57;2.20;;;9.80;99.90;;;;;;5073735;28;20747;-59
2021/11/05 01:05:18;;;;;;;3.23;2.47;;;9.80;99.90;;;;;;5073695;28;20660;-60
2021/11/05 01:07:44;;;;;;;2.37;2.17;;;9.80;99.90;;;;;;5073363;28;20618;-58
2021/11/05 01:10:11;;;;;;;2.93;2.17;;;9.80;99.90;;;;;;5073805;28;20209;-58
2021/11/05 01:12:39;;;;;;;2.40;2.20;;;9.70;99.90;;;;;;5073582;28;20638;-59
2021/11/05 01:15:06;;;;;;;2.80;2.60;;;9.60;99.90;;;;;;5073661;28;20212;-58
2021/11/05 01:17:34;;;;;;;3.40;2.27;;;9.60;99.90;;;;;;5073795;28;20274;-60
2021/11/05 01:20:03;;;;;;;2.53;2.33;;;9.70;99.90;;;;;;5073917;28;20208;-58
2021/11/05 01:22:29;;;;;;;3.97;2.70;;;9.70;99.90;;;;;;5074125;28;20228;-59
2021/11/05 01:24:56;;;;;;;3.83;2.40;;;9.70;99.90;;;;;;5073514;28;20212;-59
2021/11/05 01:27:23;;;;;;;3.33;2.60;;;9.70;99.90;;;;;;5073737;28;20210;-59
2021/11/05 01:29:50;;;;;;;3.10;2.80;;;9.80;99.90;;;;;;5073054;28;20215;-59
2021/11/05 01:32:17;;;;;;;3.30;2.57;;;9.70;99.90;;;;;;5073108;28;20623;-59
2021/11/05 01:34:44;;;;;;;4.60;2.80;;;9.70;99.90;;;;;;5073591;28;20209;-59
2021/11/05 01:37:12;;;;;;;3.73;2.57;;;9.70;99.90;;;;;;5073127;28;20215;-58
2021/11/05 01:39:39;;;;;;;3.03;2.70;;;9.70;99.90;;;;;;5072972;28;20216;-59
2021/11/05 01:42:06;;;;;;;3.00;2.70;;;9.60;99.90;;;;;;5072980;28;20672;-58
2021/11/05 01:44:33;;;;;;;2.60;2.40;;;9.60;99.90;;;;;;5072726;28;20236;-60
2021/11/05 01:47:01;;;;;;;4.10;2.70;;;9.50;99.90;;;;;;5073152;28;20212;-59
2021/11/05 01:49:28;;;;;;;3.33;2.60;;;9.60;99.90;;;;;;5073139;28;20239;-59
2021/11/05 01:51:56;;;;;;;3.53;2.67;;;9.60;99.90;;;;;;5073106;28;20208;-58
2021/11/05 01:54:25;;;;;;;2.97;2.57;;;9.70;99.90;;;;;;5072929;28;20726;-60
2021/11/05 01:56:52;;;;;;;2.83;2.47;;;9.70;99.90;;;;;;5072710;28;20346;-59
2021/11/05 01:59:23;;;;;;;2.90;2.67;;;9.60;99.90;;;;;;5072761;28;20320;-61
2021/11/05 02:01:51;;;;;;;3.20;2.90;;;9.50;99.90;;;;;;5072571;28;20212;-57
2021/11/05 02:04:17;;;;;;;3.10;2.80;;;9.50;99.90;;;;;;5072115;28;20645;-57
2021/11/05 02:06:46;;;;;;;2.93;2.63;;;9.50;99.90;;;;;;5071769;28;20205;-57
2021/11/05 02:09:15;;;;;;;3.07;2.57;;;9.50;99.90;;;;;;5071981;28;20216;-59
2021/11/05 02:11:43;;;;;;;3.30;3.00;;;9.40;99.90;;;;;;5072388;28;20258;-57
2021/11/05 02:14:16;;;;;;;3.83;2.93;;;9.40;99.90;;;;;;5071914;28;20233;-58
2021/11/05 02:16:44;;;;;;;4.97;2.70;;;9.40;99.90;;;;;;5072071;28;20691;-57
2021/11/05 02:19:13;;;;;;;4.03;2.43;;;9.40;99.90;;;;;;5071789;28;20608;-57
2021/11/05 02:21:44;;;;;;;5.03;3.00;;;9.30;99.90;;;;;;5071943;28;20295;-57
2021/11/05 02:24:11;;;;;;;4.07;3.07;;;9.30;99.90;;;;;;5071944;28;20313;-58
2021/11/05 02:26:39;;;;;;;3.90;2.77;;;9.30;99.90;;;;;;5072016;28;20300;-58
2021/11/05 02:29:05;;;;;;;3.20;2.90;;;9.30;99.90;;;;;;5071612;28;20692;-59
2021/11/05 02:31:32;;;;;;;4.33;3.10;;;9.30;99.90;;;;;;5071904;28;20201;-58
2021/11/05 02:33:59;;;;;;;5.37;3.03;;;9.30;99.90;;;;;;5071507;28;20244;-58
2021/11/05 02:36:27;;;;;;;3.20;2.90;;;9.30;99.90;;;;;;5071655;28;20205;-57
2021/11/05 02:38:55;;;;;;;3.83;3.20;;;9.30;99.90;;;;;;5071673;28;20229;-58
2021/11/05 02:41:22;;;;;;;3.57;2.93;;;9.30;99.90;;;;;;5071789;28;20211;-58
2021/11/05 02:43:49;;;;;;;3.03;2.73;;;9.30;99.90;;;;;;5071472;28;20236;-57
2021/11/05 02:46:16;;;;;;;3.13;2.83;;;9.30;99.90;;;;;;5071671;28;20649;-57
2021/11/05 02:48:43;;;;;;;3.97;3.00;;;9.20;99.90;;;;;;5071347;28;20209;-58
2021/11/05 02:51:10;;;;;;;3.83;2.70;;;9.30;99.90;;;;;;5071736;28;20232;-57
2021/11/05 02:53:37;;;;;;;3.33;2.67;;;9.20;99.90;;;;;;5071695;28;20224;-57
2021/11/05 02:56:06;;;;;;;3.27;2.80;;;9.10;99.90;;;;;;5071841;28;20205;-57
2021/11/05 02:58:33;;;;;;;3.37;2.83;;;9.10;99.90;;;;;;5071312;28;20642;-57
2021/11/05 03:01:00;;;;;;;4.13;3.00;;;9.10;99.90;;;;;;5071657;28;20220;-58
2021/11/05 03:03:27;;;;;;;3.27;2.83;;;9.20;99.90;;;;;;5070897;28;20228;-57
2021/11/05 03:05:54;;;;;;;3.40;2.83;;;9.30;99.90;;;;;;5071520;28;20278;-57
2021/11/05 03:08:21;;;;;;;2.83;2.63;;;9.30;99.90;;;;;;5071046;28;20667;-57
2021/11/05 03:10:48;;;;;;;4.20;3.20;;;9.30;99.90;;;;;;5071162;28;20262;-58
2021/11/05 03:13:16;;;;;;;3.67;2.83;;;9.30;99.90;;;;;;5070974;28;20259;-57
2021/11/05 03:15:43;;;;;;;3.77;3.20;;;9.30;99.90;;;;;;5070986;28;20209;-57
2021/11/05 03:18:10;;;;;;;3.20;2.90;;;9.40;99.90;;;;;;5070129;28;20699;-57
2021/11/05 03:20:37;;;;;;;3.20;2.90;;;9.40;99.90;;;;;;5071199;28;20211;-57
2021/11/05 03:23:04;;;;;;;3.57;2.73;;;9.30;99.90;;;;;;5071342;28;20224;-58
2021/11/05 03:25:31;;;;;;;3.50;3.20;;;9.30;99.90;;;;;;5071006;28;20212;-58
2021/11/05 03:27:58;;;;;;;4.63;3.00;;;9.30;99.90;;;;;;5070775;28;20197;-58
2021/11/05 03:30:26;;;;;;;3.10;2.80;;;9.30;99.90;;;;;;5070811;28;20216;-58
2021/11/05 03:32:52;;;;;;;7.33;4.97;;;9.30;99.90;;;;;;5070638;28;20237;-58
2021/11/05 03:35:19;;;;;;;7.13;4.67;;;9.30;99.90;;;;;;5070920;28;20204;-58
2021/11/05 03:37:47;;;;;;;11.10;8.17;;;9.30;99.90;;;;;;5070843;28;20209;-58
2021/11/05 03:40:15;;;;;;;3.23;2.93;;;9.30;99.90;;;;;;5070956;28;20211;-58
2021/11/05 03:42:48;;;;;;;4.43;2.83;;;9.40;99.90;;;;;;5070810;28;20224;-58
2021/11/05 03:45:15;;;;;;;4.17;3.57;;;9.50;99.90;;;;;;5070704;28;20292;-58
2021/11/05 03:47:44;;;;;;;5.23;4.10;;;9.50;99.90;;;;;;5071070;28;20205;-58
2021/11/05 03:50:10;;;;;;;3.80;3.50;;;9.60;99.90;;;;;;5071168;28;20216;-58
2021/11/05 03:52:38;;;;;;;3.70;3.33;;;9.50;99.90;;;;;;5070705;28;20278;-58
2021/11/05 03:55:05;;;;;;;4.77;3.47;;;9.50;99.90;;;;;;5070707;28;20241;-58
2021/11/05 03:57:32;;;;;;;4.13;3.73;;;9.50;99.90;;;;;;5070618;28;20738;-58
2021/11/05 03:59:58;;;;;;;7.87;4.47;;;9.50;99.90;;;;;;5070864;28;20227;-58
2021/11/05 04:02:25;;;;;;;26.17;18.03;;;9.60;99.90;;;;;;5071177;28;20234;-59
2021/11/05 04:04:55;;;;;;;7.40;5.13;;;9.60;99.90;;;;;;5070902;28;20212;-58
2021/11/05 04:07:22;;;;;;;3.77;3.20;;;9.70;99.90;;;;;;5070758;28;20728;-57
2021/11/05 04:09:48;;;;;;;3.73;3.27;;;9.70;99.90;;;;;;5070957;28;20626;-58
2021/11/05 04:12:15;;;;;;;4.53;3.30;;;9.60;99.90;;;;;;5070974;28;20211;-58
2021/11/05 04:14:42;;;;;;;5.17;3.20;;;9.50;99.90;;;;;;5070721;28;20286;-58
2021/11/05 04:17:09;;;;;;;3.27;2.90;;;9.60;99.90;;;;;;5070578;28;20246;-58
2021/11/05 04:19:35;;;;;;;4.53;3.00;;;9.60;99.90;;;;;;5070573;28;20225;-59
2021/11/05 04:22:04;;;;;;;3.90;3.33;;;9.60;99.90;;;;;;5070468;28;20208;-58
2021/11/05 04:24:31;;;;;;;6.90;4.07;;;9.50;99.90;;;;;;5070184;28;20233;-58
2021/11/05 04:26:57;;;;;;;12.80;9.57;;;9.50;99.90;;;;;;5070458;28;20205;-58
2021/11/05 04:29:24;;;;;;;10.17;7.37;;;9.50;99.90;;;;;;5072309;28;20201;-58
2021/11/05 04:31:51;;;;;;;4.67;3.30;;;9.50;99.90;;;;;;5074298;28;20216;-58
2021/11/05 04:34:17;;;;;;;3.07;2.70;;;9.40;99.90;;;;;;5073871;28;20232;-58
2021/11/05 04:36:45;;;;;;;3.10;2.70;;;9.40;99.90;;;;;;5074303;28;20634;-58
2021/11/05 04:39:17;;;;;;;3.47;2.80;;;9.40;99.90;;;;;;5074125;28;20345;-59
2021/11/05 04:41:44;;;;;;;3.63;2.77;;;9.30;99.90;;;;;;5074517;28;20266;-59
2021/11/05 04:44:10;;;;;;;4.93;3.77;;;9.40;99.90;;;;;;5074175;28;20654;-58
2021/11/05 04:46:37;;;;;;;4.03;3.30;;;9.40;99.90;;;;;;5074365;28;20216;-59
2021/11/05 04:49:05;;;;;;;3.00;2.70;;;9.50;99.90;;;;;;5074184;28;20706;-59
2021/11/05 04:51:32;;;;;;;2.80;2.57;;;9.50;99.90;;;;;;5074050;28;20205;-58
2021/11/05 04:53:59;;;;;;;4.10;2.90;;;9.50;99.90;;;;;;5073717;28;20229;-59
2021/11/05 04:56:27;;;;;;;3.50;3.10;;;9.60;99.90;;;;;;5073924;28;20669;-57
2021/11/05 04:58:55;;;;;;;4.10;3.70;;;9.60;99.90;;;;;;5073516;28;20618;-58
2021/11/05 05:01:22;;;;;;;8.27;4.17;;;9.60;99.90;;;;;;5073669;28;20684;-59
2021/11/05 05:03:49;;;;;;;3.23;2.73;;;9.60;99.90;;;;;;5073473;28;20716;-59
2021/11/05 05:06:16;;;;;;;2.80;2.60;;;9.60;99.90;;;;;;5073448;28;20677;-59
2021/11/05 05:08:42;;;;;;;4.37;3.10;;;9.60;99.90;;;;;;5073361;28;20216;-59
2021/11/05 05:11:12;;;;;;;3.43;2.93;;;9.60;99.90;;;;;;5073451;28;20681;-60
2021/11/05 05:13:40;;;;;;;4.33;3.20;;;9.60;99.90;;;;;;5073205;28;20783;-59
2021/11/05 05:16:07;;;;;;;3.87;2.90;;;9.50;99.90;;;;;;5073855;28;20476;-57
2021/11/05 05:18:33;;;;;;;9.83;2.90;;;9.50;99.90;;;;;;5073354;28;20229;-58
2021/11/05 05:21:00;;;;;;;5.60;3.97;;;9.50;99.90;;;;;;5073314;28;20239;-58
2021/11/05 05:23:27;;;;;;;4.20;3.27;;;9.50;99.90;;;;;;5073308;28;20251;-58
2021/11/05 05:25:53;;;;;;;3.20;2.70;;;9.50;99.90;;;;;;5073300;28;20211;-59
2021/11/05 05:28:20;;;;;;;2.80;2.53;;;9.60;99.90;;;;;;5072878;28;20623;-59
2021/11/05 05:30:48;;;;;;;5.53;3.00;;;9.60;99.90;;;;;;5073197;28;20205;-59
2021/11/05 05:33:15;;;;;;;3.17;2.63;;;9.60;99.90;;;;;;5072672;28;20785;-58
2021/11/05 05:35:42;;;;;;;4.37;2.93;;;9.60;99.90;;;;;;5073170;28;20258;-59
2021/11/05 05:38:09;;;;;;;3.43;2.87;;;9.60;99.90;;;;;;5073266;28;20212;-59
2021/11/05 05:40:35;;;;;;;4.03;2.70;;;9.60;99.90;;;;;;5072278;28;20296;-58
2021/11/05 05:43:02;;;;;;;7.40;5.80;;;9.70;99.90;;;;;;5073022;28;20224;-59
2021/11/05 05:45:29;;;;;;;4.17;3.27;;;9.70;99.90;;;;;;5072808;28;20201;-59
2021/11/05 05:47:57;;;;;;;3.50;2.50;;;9.60;99.90;;;;;;5072628;28;20584;-59
2021/11/05 05:50:23;;;;;;;6.57;4.83;;;9.60;99.90;;;;;;5073209;28;20200;-59
2021/11/05 05:52:50;;;;;;;2.90;2.60;;;9.70;99.90;;;;;;5072803;28;20274;-59
2021/11/05 05:55:17;;;;;;;3.17;2.73;;;9.70;99.90;;;;;;5072637;28;20204;-59
2021/11/05 05:57:44;;;;;;;4.87;3.37;;;9.70;99.90;;;;;;5072655;28;20516;-59
2021/11/05 06:00:14;;;;;;;4.73;2.70;;;9.70;99.90;;;;;;5072443;28;20224;-59
2021/11/05 06:02:41;;;;;;;5.13;2.90;;;9.70;99.90;;;;;;5072605;28;20270;-59
2021/11/05 06:05:10;;;;;;;3.80;3.00;;;9.80;99.90;;;;;;5072511;28;20213;-58
2021/11/05 06:07:37;;;;;;;3.70;3.13;;;9.80;99.90;;;;;;5072270;28;20680;-59
2021/11/05 06:10:04;;;;;;;5.47;4.13;;;9.70;99.90;;;;;;5072267;28;20208;-59
2021/11/05 06:12:32;;;;;;;5.10;3.47;;;9.70;99.90;;;;;;5072202;28;20225;-59
2021/11/05 06:14:58;;;;;;;4.23;3.00;;;9.70;99.90;;;;;;5072073;28;20205;-59
2021/11/05 06:17:25;;;;;;;2.97;2.70;;;9.70;99.90;;;;;;5072021;28;20209;-59
2021/11/05 06:19:52;;;;;;;2.77;2.50;;;9.70;99.90;;;;;;5072042;28;20236;-58
2021/11/05 06:22:20;;;;;;;7.40;5.33;;;9.80;99.90;;;;;;5072190;28;20569;-59
2021/11/05 06:24:47;;;;;;;2.93;2.60;;;9.80;99.90;;;;;;5071939;28;20617;-59
2021/11/05 06:27:14;;;;;;;4.00;3.27;;;9.80;99.90;;;;;;5071866;28;20583;-59
2021/11/05 06:29:42;;;;;;;3.20;2.80;;;9.80;99.90;;;;;;5071829;28;20219;-58
2021/11/05 06:32:09;;;;;;;6.97;4.70;;;9.80;99.90;;;;;;5072175;28;20258;-59
2021/11/05 06:34:36;;;;;;;4.93;3.67;;;9.90;99.90;;;;;;5071628;28;20220;-58
2021/11/05 06:37:03;;;;;;;4.80;3.07;;;10.00;99.90;;;;;;5071964;28;20250;-59
2021/11/05 06:39:31;;;;;;;4.53;3.00;;;10.00;99.90;;;;;;5071589;28;20248;-59
2021/11/05 06:41:58;;;;;;;5.93;3.93;;;10.00;99.90;;;;;;5071562;28;20234;-59
2021/11/05 06:44:25;;;;;;;9.93;8.90;;;10.00;99.90;;;;;;5071665;28;20290;-59
2021/11/05 06:46:52;;;;;;;13.97;11.23;;;10.00;99.90;;;;;;5071751;28;20204;-59
2021/11/05 06:49:19;;;;;;;5.40;3.03;;;10.10;99.90;;;;;;5071592;28;20200;-59
2021/11/05 06:51:48;;;;;;;3.33;3.00;;;10.10;99.90;;;;;;5071676;28;20216;-59
2021/11/05 06:54:15;;;;;;;3.40;2.83;;;10.20;99.90;;;;;;5071197;28;20581;-59
2021/11/05 06:56:43;;;;;;;2.70;2.40;;;10.20;99.90;;;;;;5071464;28;20215;-59
2021/11/05 06:59:09;;;;;;;2.73;2.53;;;10.20;99.90;;;;;;5071105;28;20221;-59
2021/11/05 07:01:36;;;;;;;3.63;2.30;;;10.30;99.90;;;;;;5071564;28;20209;-59
2021/11/05 07:04:03;;;;;;;3.90;3.17;;;10.30;99.90;;;;;;5071384;28;20412;-59
2021/11/05 07:06:29;;;;;;;3.60;2.80;;;10.30;99.90;;;;;;5071415;28;20207;-58
2021/11/05 07:08:56;;;;;;;4.27;2.50;;;10.30;99.90;;;;;;5071061;28;20205;-59
2021/11/05 07:11:23;;;;;;;3.60;3.00;;;10.40;99.90;;;;;;5071225;28;20208;-58
2021/11/05 07:13:51;;;;;;;3.20;2.57;;;10.40;99.90;;;;;;5071436;28;20224;-58
2021/11/05 07:16:18;;;;;;;3.23;2.93;;;10.40;99.90;;;;;;5071217;28;20212;-59
2021/11/05 07:18:45;;;;;;;4.83;2.90;;;10.40;99.90;;;;;;5070996;28;20684;-59
2021/11/05 07:21:13;;;;;;;3.30;3.00;;;10.40;99.90;;;;;;5071011;28;20572;-59
2021/11/05 07:23:40;;;;;;;4.67;3.10;;;10.40;99.90;;;;;;5070869;28;20236;-59
2021/11/05 07:26:09;;;;;;;5.37;3.10;;;10.40;99.90;;;;;;5070992;28;20216;-59
2021/11/05 07:28:36;;;;;;;4.80;3.00;;;10.40;99.90;;;;;;5070738;28;20710;-59
2021/11/05 07:31:04;;;;;;;4.33;3.03;;;10.40;99.90;;;;;;5070871;28;20253;-59
2021/11/05 07:33:31;;;;;;;4.50;3.63;;;10.40;99.90;;;;;;5092477;22;20236;-58
2021/11/05 07:35:58;;;;;;;5.00;3.53;;;10.40;99.90;;;;;;5091787;28;20208;-58
2021/11/05 07:38:24;;;;;;;5.93;3.90;;;10.40;99.90;;;;;;5091295;28;20204;-56
2021/11/05 07:40:51;;;;;;;4.80;3.60;;;10.30;99.90;;;;;;5091291;28;20228;-56
2021/11/05 07:43:18;;;;;;;5.20;3.27;;;10.40;99.90;;;;;;5091135;28;20232;-57
2021/11/05 07:45:45;;;;;;;7.10;3.63;;;10.30;99.90;;;;;;5090877;28;20214;-56
2021/11/05 07:48:13;;;;;;;2.90;2.60;;;10.40;99.90;;;;;;5091113;28;20204;-58
2021/11/05 07:50:39;;;;;;;6.53;3.17;;;10.40;99.90;;;;;;5091033;28;20719;-57
2021/11/05 07:53:06;;;;;;;3.30;3.00;;;10.40;99.90;;;;;;5090884;28;20228;-57
2021/11/05 07:55:33;;;;;;;3.13;2.57;;;10.40;99.90;;;;;;5090836;28;20253;-58
2021/11/05 07:58:00;;;;;;;3.63;2.33;;;10.60;99.90;;;;;;5090781;28;20588;-57
2021/11/05 08:00:27;;;;;;;4.40;2.43;;;10.60;99.90;;;;;;5090953;28;20232;-56
2021/11/05 08:02:54;;;;;;;6.00;4.70;;;10.70;99.90;;;;;;5090769;28;20227;-58
2021/11/05 08:05:22;;;;;;;4.90;2.70;;;10.70;99.90;;;;;;5094009;28;20233;-57
2021/11/05 08:07:49;;;;;;;4.20;3.00;;;10.70;99.90;;;;;;5095028;28;20212;-55
2021/11/05 08:10:20;;;;;;;3.80;2.73;;;10.70;99.90;;;;;;5095072;28;20242;-55
2021/11/05 08:12:48;;;;;;;4.20;3.20;;;10.80;99.90;;;;;;5094776;28;20299;-56
2021/11/05 08:15:15;;;;;;;4.50;3.00;;;10.70;99.90;;;;;;5094373;28;20208;-56
2021/11/05 08:17:43;;;;;;;6.27;3.07;;;10.80;99.90;;;;;;5094544;28;20310;-56
2021/11/05 08:20:11;;;;;;;3.23;2.80;;;10.80;99.90;;;;;;5094324;28;20224;-56
2021/11/05 08:22:39;;;;;;;4.37;3.30;;;10.90;99.90;;;;;;5094692;28;20208;-56
2021/11/05 08:25:12;;;;;;;4.17;3.57;;;10.90;99.90;;;;;;5094705;28;20211;-56
2021/11/05 08:27:39;;;;;;;4.93;2.97;;;10.90;99.90;;;;;;5094709;28;20235;-59
2021/11/05 08:30:10;;;;;;;3.40;3.10;;;11.10;99.90;;;;;;5094568;28;20203;-56
2021/11/05 08:32:37;;;;;;;3.67;2.87;;;11.10;99.90;;;;;;5094533;28;20204;-56
2021/11/05 08:35:05;;;;;;;4.10;2.97;;;11.40;99.90;;;;;;5093948;28;20265;-55
2021/11/05 08:37:32;;;;;;;2.50;2.30;;;11.50;99.90;;;;;;5094428;28;20208;-55
2021/11/05 08:40:00;;;;;;;5.50;3.07;;;11.70;99.90;;;;;;5094373;28;20228;-56
2021/11/05 08:42:28;;;;;;;4.20;2.80;;;11.70;99.90;;;;;;5094156;28;20212;-57
2021/11/05 08:44:55;;;;;;;3.30;2.97;;;11.70;99.90;;;;;;5094300;28;20262;-58
2021/11/05 08:47:22;;;;;;;4.30;2.63;;;11.60;99.90;;;;;;5094081;28;20291;-59
2021/11/05 08:49:53;;;;;;;5.57;4.97;;;11.60;99.90;;;;;;5094354;28;20578;-58
2021/11/05 08:52:20;;;;;;;3.40;2.93;;;11.60;99.90;;;;;;5094132;28;20226;-58
2021/11/05 08:54:46;;;;;;;2.97;2.70;;;11.70;99.90;;;;;;5093701;28;20220;-58
2021/11/05 08:57:15;;;;;;;3.60;2.90;;;11.70;99.90;;;;;;5094045;28;20211;-58
2021/11/05 08:59:41;;;;;;;6.47;2.90;;;11.80;99.90;;;;;;5094086;28;20205;-59
2021/11/05 09:02:08;;;;;;;6.30;2.60;;;11.80;99.90;;;;;;5094111;28;20220;-59
2021/11/05 09:04:35;;;;;;;5.03;2.60;;;12.10;99.90;;;;;;5093955;28;20224;-60
2021/11/05 09:07:02;;;;;;;3.17;2.30;;;12.20;99.90;;;;;;5094066;28;20618;-59
2021/11/05 09:09:30;;;;;;;5.63;2.53;;;12.40;99.90;;;;;;5093685;28;20204;-58
2021/11/05 09:11:56;;;;;;;3.40;2.60;;;12.50;99.90;;;;;;5093604;28;20208;-59
2021/11/05 09:14:24;;;;;;;3.57;2.50;;;12.60;99.90;;;;;;5093385;28;20289;-59
2021/11/05 09:16:51;;;;;;;4.30;2.43;;;12.60;99.90;;;;;;5092376;28;20204;-58
2021/11/05 09:19:18;;;;;;;4.03;3.03;;;12.70;99.90;;;;;;5093301;28;20698;-58
2021/11/05 09:21:44;;;;;;;5.77;4.00;;;12.60;99.90;;;;;;5093656;28;20224;-59
2021/11/05 09:24:11;;;;;;;4.63;2.57;;;12.60;99.90;;;;;;5093545;28;20235;-59
2021/11/05 09:26:38;;;;;;;4.43;2.80;;;12.60;99.90;;;;;;5093591;28;20204;-58
2021/11/05 09:29:05;;;;;;;3.13;2.53;;;12.70;99.90;;;;;;5093419;28;20215;-58
2021/11/05 09:31:33;;;;;;;3.10;2.80;;;12.70;99.90;;;;;;5093331;28;20695;-58
2021/11/05 09:33:59;;;;;;;4.57;2.73;;;12.80;99.90;;;;;;5093465;28;20240;-57
2021/11/05 09:36:26;;;;;;;4.63;3.13;;;13.00;99.90;;;;;;5093744;28;20205;-59
2021/11/05 09:38:53;;;;;;;5.10;3.53;;;13.10;99.90;;;;;;5094212;28;20221;-59
2021/11/05 09:41:19;;;;;;;5.23;4.03;;;13.30;99.90;;;;;;5093218;28;20235;-58
2021/11/05 09:43:46;;;;;;;8.73;5.30;;;13.30;99.90;;;;;;5093246;28;20228;-59
2021/11/05 09:46:13;;;;;;;3.47;3.10;;;13.40;99.90;;;;;;5093427;28;20668;-59
2021/11/05 09:48:42;;;;;;;3.97;3.40;;;13.50;99.90;;;;;;5092962;28;20627;-59
2021/11/05 09:51:10;;;;;;;4.47;3.00;;;13.70;99.90;;;;;;5093045;28;20196;-58
2021/11/05 09:53:38;;;;;;;3.73;3.03;;;13.70;99.90;;;;;;5092774;28;20711;-58
2021/11/05 09:56:06;;;;;;;3.57;3.00;;;13.70;99.90;;;;;;5092968;28;20200;-58
2021/11/05 09:58:33;;;;;;;4.27;2.93;;;13.60;99.90;;;;;;5092973;28;20354;-57
2021/11/05 10:01:00;;;;;;;3.40;3.10;;;13.60;99.90;;;;;;5081625;28;20457;-57
2021/11/05 10:03:27;;;;;;;23.40;15.67;;;13.60;99.90;;;;;;5072093;28;20228;-58
2021/11/05 10:05:56;;;;;;;3.50;3.20;;;13.60;99.90;;;;;;5072361;28;20299;-57
2021/11/05 10:08:27;;;;;;;3.97;3.53;;;13.60;99.90;;;;;;5071475;28;20208;-57
2021/11/05 10:10:54;;;;;;;3.57;3.10;;;13.60;99.90;;;;;;5072372;28;20201;-59
2021/11/05 10:13:24;;;;;;;3.63;3.33;;;13.60;99.90;;;;;;5072063;28;20225;-57
2021/11/05 10:15:53;;;;;;;3.43;2.97;;;13.70;99.90;;;;;;5072533;28;20262;-58
2021/11/05 10:18:22;;;;;;;3.93;3.40;;;13.70;99.90;;;;;;5072409;28;20216;-58
2021/11/05 10:21:05;;;;;;;3.90;3.60;;;13.70;99.90;;;;;;5072031;28;20224;-58
2021/11/05 10:23:35;;;;;;;5.77;3.37;;;13.50;99.90;;;;;;5072259;28;20285;-59
2021/11/05 10:26:04;;;;;;;4.00;3.30;;;13.40;99.90;;;;;;5072421;28;20669;-58
2021/11/05 10:28:31;;;;;;;4.17;3.30;;;13.40;99.90;;;;;;5071931;28;20201;-58
2021/11/05 10:31:00;;;;;;;4.33;3.93;;;13.50;99.90;;;;;;5072102;28;20204;-58
2021/11/05 10:33:32;;;;;;;4.90;4.37;;;13.60;99.90;;;;;;5071639;28;20405;-58
2021/11/05 10:36:01;;;;;;;3.90;3.60;;;13.80;99.90;;;;;;5071844;28;20669;-58
2021/11/05 10:38:31;;;;;;;4.70;3.57;;;13.90;99.90;;;;;;5071575;28;20694;-57
2021/11/05 10:41:01;;;;;;;4.17;3.23;;;13.80;99.90;;;;;;5071699;28;20225;-57
2021/11/05 10:43:39;;;;;;;7.90;4.33;;;13.90;99.90;;;;;;5072017;28;20236;-57
2021/11/05 10:46:08;;;;;;;4.33;3.23;;;14.20;99.90;;;;;;5071958;28;20212;-59
2021/11/05 10:48:39;;;;;;;4.70;3.60;;;14.60;99.90;;;;;;5072220;28;20221;-58
2021/11/05 10:51:08;;;;;;;7.40;3.17;;;14.90;99.90;;;;;;5071879;28;20207;-58
2021/11/05 10:53:37;;;;;;;4.53;2.90;;;15.10;99.90;;;;;;5071518;28;20668;-57
2021/11/05 10:56:06;;;;;;;3.50;3.10;;;15.40;99.90;;;;;;5071541;28;20208;-57
2021/11/05 10:58:38;;;;;;;3.50;3.20;;;15.60;99.90;;;;;;5071295;28;20250;-57
2021/11/05 11:01:08;;;;;;;4.30;3.00;;;15.40;99.90;;;;;;5071541;28;20225;-58
2021/11/05 11:03:38;;;;;;;3.50;3.20;;;15.40;99.90;;;;;;5071301;28;20229;-58
2021/11/05 11:06:07;;;;;;;3.80;3.40;;;15.20;99.90;;;;;;5072315;28;20603;-57
2021/11/05 11:08:38;;;;;;;3.57;3.00;;;15.40;99.90;;;;;;5071999;28;20696;-58
2021/11/05 11:11:18;;;;;;;3.53;3.23;;;15.50;99.90;;;;;;5072315;28;20688;-58
2021/11/05 11:13:46;;;;;;;4.03;3.63;;;15.50;99.90;;;;;;5072041;28;20230;-57
2021/11/05 11:16:18;;;;;;;5.00;3.43;;;15.30;99.90;;;;;;5071834;28;20262;-58
2021/11/05 11:18:51;;;;;;;6.17;3.40;;;15.40;99.90;;;;;;5071446;28;20215;-58
2021/11/05 11:21:20;;;;;;;4.73;3.83;;;15.00;99.90;;;;;;5071312;28;20572;-58
2021/11/05 11:23:47;;;;;;;6.83;3.77;;;14.60;99.90;;;;;;5071051;28;20229;-57
2021/11/05 11:26:16;;;;;;;4.30;3.80;;;14.80;99.90;;;;;;5071170;28;20236;-57
2021/11/05 11:28:43;;;;;;;4.70;4.20;;;14.80;99.90;;;;;;5071383;28;20480;-57
2021/11/05 11:31:12;;;;;;;5.13;3.80;;;14.80;99.90;;;;;;5071476;28;20203;-58
2021/11/05 11:33:40;;;;;;;4.30;3.90;;;14.80;99.90;;;;;;5070715;28;20233;-56
2021/11/05 11:36:07;;;;;;;4.23;3.83;;;14.80;99.90;;;;;;5071026;28;20209;-57
2021/11/05 11:38:34;;;;;;;4.00;3.60;;;15.00;99.90;;;;;;5070318;28;20213;-57
2021/11/05 11:41:02;;;;;;;15.27;13.63;;;15.10;99.90;;;;;;5070960;28;20232;-57
2021/11/05 11:43:31;;;;;;;4.37;3.80;;;15.20;99.90;;;;;;5070629;28;20220;-58
2021/11/05 11:46:01;;;;;;;6.50;4.07;;;15.20;99.90;;;;;;5070486;28;20213;-57
2021/11/05 11:48:44;;;;;;;5.57;3.60;;;15.30;99.90;;;;;;5070390;28;20286;-57
2021/11/05 11:51:24;;;;;;;5.13;4.63;;;15.40;99.90;;;;;;5071065;28;20205;-58
2021/11/05 11:53:52;;;;;;;5.37;4.87;;;15.50;99.90;;;;;;5070350;28;20234;-58
2021/11/05 11:56:27;;;;;;;6.60;4.67;;;15.40;99.90;;;;;;5070724;28;20629;-58
2021/11/05 11:58:58;;;;;;;5.50;4.60;;;15.30;99.90;;;;;;5070264;28;20228;-57
2021/11/05 12:01:26;;;;;;;6.87;4.60;;;15.40;99.90;;;;;;5070534;28;20232;-58
2021/11/05 12:03:55;;;;;;;6.90;5.03;;;15.30;99.90;;;;;;5070546;28;20229;-58
2021/11/05 12:06:22;;;;;;;5.53;4.87;;;15.00;99.90;;;;;;5070677;28;20209;-57
2021/11/05 12:08:50;;;;;;;5.13;4.53;;;15.10;99.90;;;;;;5070459;28;20258;-56
2021/11/05 12:11:27;;;;;;;5.17;4.67;;;15.30;99.90;;;;;;5070396;28;20664;-58
2021/11/05 12:14:00;;;;;;;6.23;4.70;;;15.50;99.90;;;;;;5070547;28;20228;-61
2021/11/05 12:16:29;;;;;;;5.70;5.20;;;15.70;99.90;;;;;;5070447;28;20270;-55
2021/11/05 12:19:18;;;;;;;5.93;5.10;;;15.90;99.90;;;;;;5070727;28;20300;-57
2021/11/05 12:21:49;;;;;;;6.20;5.40;;;15.80;99.90;;;;;;5070515;28;20718;-56
2021/11/05 12:24:26;;;;;;;8.50;7.13;;;15.80;99.90;;;;;;5070700;28;20225;-58
2021/11/05 12:26:55;;;;;;;7.27;4.83;;;16.00;99.90;;;;;;5070330;28;20212;-55
2021/11/05 12:30:04;;;;;;;4.57;4.17;;;15.70;99.90;;;;;;5070289;28;20212;-57
2021/11/05 12:32:36;;;;;;;4.50;4.07;;;15.50;99.90;;;;;;4969351;28;20503;-55
2021/11/05 12:35:25;;;;;;;12.60;9.87;;;15.30;99.90;;;;;;4969226;28;20224;-55
2021/11/05 12:37:58;;;;;;;5.60;5.10;;;15.00;99.90;;;;;;5038927;28;20211;-56
2021/11/05 12:40:31;;;;;;;5.13;4.63;;;14.90;99.90;;;;;;5070298;28;20220;-56
2021/11/05 12:43:00;;;;;;;5.20;4.70;;;14.80;99.90;;;;;;5069998;28;20237;-56
2021/11/05 12:45:48;;;;;;;5.77;4.40;;;14.80;99.90;;;;;;5069847;28;20209;-56
2021/11/05 12:48:16;;;;;;;5.90;5.30;;;14.90;99.90;;;;;;5069957;28;20240;-57
2021/11/05 12:50:45;;;;;;;6.17;5.57;;;15.00;99.90;;;;;;5072019;28;20205;-57
2021/11/05 12:53:13;;;;;;;8.10;5.87;;;14.90;99.90;;;;;;5073801;28;20225;-57
2021/11/05 12:55:41;;;;;;;6.77;5.87;;;14.70;99.90;;;;;;5073932;28;20504;-56